Time;durP1;ratioP1;P1;durP2;ratioP2;P2;SDS_P1;SDS_P2;PMS_P1;PMS_P2;Temp;Humidity;BMP_temperature;BMP_pressure;BME280_temperature;BME280_humidity;BME280_pressure;Samples;Min_cycle;Max_cycle;Signal;HPM_P1;HPM_P2
2022/09/01 00:02:15;;;;;;;6.57;2.60;;;13.10;99.90;;;;;;5001046;28;20250;-67
2022/09/01 00:04:44;;;;;;;3.55;2.50;;;13.10;99.90;;;;;;4999487;28;20049;-67
2022/09/01 00:07:11;;;;;;;6.55;2.55;;;13.10;99.90;;;;;;4998472;28;20045;-67
2022/09/01 00:09:38;;;;;;;4.03;2.97;;;13.00;99.90;;;;;;5017601;28;20298;-66
2022/09/01 00:12:06;;;;;;;4.10;2.53;;;13.00;99.90;;;;;;5000119;28;20519;-67
2022/09/01 00:14:36;;;;;;;2.78;2.33;;;12.90;99.90;;;;;;5015377;28;20053;-66
2022/09/01 00:17:06;;;;;;;3.85;2.30;;;12.90;99.90;;;;;;5001931;28;20125;-66
2022/09/01 00:19:35;;;;;;;4.13;2.35;;;12.90;99.90;;;;;;5010332;28;20041;-67
2022/09/01 00:22:02;;;;;;;2.05;1.85;;;12.90;99.90;;;;;;5029727;28;20264;-66
2022/09/01 00:24:28;;;;;;;3.72;2.20;;;12.90;99.90;;;;;;4999399;28;20375;-67
2022/09/01 00:26:54;;;;;;;2.95;2.65;;;12.90;99.90;;;;;;5019409;28;20041;-67
2022/09/01 00:29:21;;;;;;;3.58;2.03;;;12.90;99.90;;;;;;5001466;28;20053;-67
2022/09/01 00:31:47;;;;;;;3.90;2.30;;;12.80;99.90;;;;;;5017672;28;20152;-67
2022/09/01 00:34:15;;;;;;;4.18;2.10;;;12.80;99.90;;;;;;4984413;28;20053;-66
2022/09/01 00:36:41;;;;;;;4.50;2.35;;;12.70;99.90;;;;;;5018019;28;20067;-66
2022/09/01 00:39:08;;;;;;;3.65;2.35;;;12.70;99.90;;;;;;5016125;28;20037;-67
2022/09/01 00:41:37;;;;;;;3.90;2.20;;;12.70;99.90;;;;;;5002114;28;20075;-67
2022/09/01 00:44:10;;;;;;;5.15;2.88;;;12.70;99.90;;;;;;5016464;28;20095;-66
2022/09/01 00:46:41;;;;;;;3.45;2.30;;;12.60;99.90;;;;;;5001488;28;20045;-67
2022/09/01 00:49:16;;;;;;;2.20;2.00;;;12.60;99.90;;;;;;5018753;28;20041;-67
2022/09/01 00:51:46;;;;;;;5.55;2.40;;;12.50;99.90;;;;;;5016775;28;20040;-66
2022/09/01 00:54:17;;;;;;;4.20;2.38;;;12.50;99.90;;;;;;5017378;28;20050;-67
2022/09/01 00:56:45;;;;;;;2.20;2.00;;;12.50;99.90;;;;;;5007839;28;20114;-68
2022/09/01 00:59:12;;;;;;;2.15;1.95;;;12.40;99.90;;;;;;4987958;28;20045;-66
2022/09/01 01:01:38;;;;;;;5.82;2.42;;;12.40;99.90;;;;;;4989761;28;20030;-66
2022/09/01 01:04:13;;;;;;;2.53;2.20;;;12.40;99.90;;;;;;5020990;28;20690;-66
2022/09/01 01:06:48;;;;;;;3.97;2.50;;;12.40;99.90;;;;;;5020200;28;20049;-66
2022/09/01 01:09:19;;;;;;;4.70;2.28;;;12.40;99.90;;;;;;5005158;28;20052;-66
2022/09/01 01:11:46;;;;;;;2.78;2.50;;;12.40;99.90;;;;;;5021503;28;20045;-66
2022/09/01 01:14:14;;;;;;;4.15;2.45;;;12.40;99.90;;;;;;5021132;28;21255;-66
2022/09/01 01:16:45;;;;;;;2.85;2.35;;;12.40;99.90;;;;;;5020314;28;20397;-67
2022/09/01 01:25:21;;;;;;;2.60;2.20;;;12.30;99.90;;;;;;5021060;28;20050;-66
2022/09/01 01:27:47;;;;;;;3.15;2.17;;;12.20;99.90;;;;;;5019855;28;20038;-66
2022/09/01 01:30:15;;;;;;;2.70;2.20;;;12.20;99.90;;;;;;5003566;28;20188;-66
2022/09/01 01:32:46;;;;;;;2.67;2.33;;;12.20;99.90;;;;;;5003196;28;20104;-66
2022/09/01 01:35:14;;;;;;;3.20;2.35;;;12.20;99.90;;;;;;5000805;28;20060;-66
2022/09/01 01:37:47;;;;;;;4.18;2.22;;;12.10;99.90;;;;;;5020207;28;20115;-66
2022/09/01 01:40:16;;;;;;;3.95;2.13;;;12.10;99.90;;;;;;5020301;28;20030;-66
2022/09/01 01:42:47;;;;;;;2.92;2.22;;;12.10;99.90;;;;;;5018541;28;20056;-66
2022/09/01 01:45:18;;;;;;;3.60;2.30;;;12.00;99.90;;;;;;5018481;28;20057;-66
2022/09/01 01:47:55;;;;;;;7.57;2.25;;;12.00;99.90;;;;;;5020317;28;20084;-66
2022/09/01 01:50:34;;;;;;;3.20;1.98;;;12.00;99.90;;;;;;5002232;28;20053;-66
2022/09/01 01:53:02;;;;;;;4.00;2.00;;;12.00;99.90;;;;;;5019615;28;20074;-66
2022/09/01 01:55:29;;;;;;;4.38;2.47;;;12.00;99.90;;;;;;5020055;28;20041;-66
2022/09/01 01:57:56;;;;;;;3.05;2.28;;;12.00;99.90;;;;;;5002795;28;20061;-66
2022/09/01 02:00:33;;;;;;;4.20;2.17;;;12.00;99.90;;;;;;5020881;28;20124;-66
2022/09/01 02:02:59;;;;;;;3.45;2.40;;;12.00;99.90;;;;;;5004802;28;20072;-66
2022/09/01 02:05:28;;;;;;;4.57;2.60;;;11.90;99.90;;;;;;5019611;28;20057;-66
2022/09/01 02:08:03;;;;;;;3.85;2.35;;;11.90;99.90;;;;;;5020748;28;20064;-67
2022/09/01 02:10:31;;;;;;;4.97;2.50;;;11.80;99.90;;;;;;5018438;28;20061;-67
2022/09/01 02:13:04;;;;;;;4.13;2.78;;;11.80;99.90;;;;;;5017996;28;20144;-67
2022/09/01 02:15:43;;;;;;;2.33;2.05;;;11.70;99.90;;;;;;5003955;28;20486;-67
2022/09/01 02:18:22;;;;;;;4.75;2.38;;;11.70;99.90;;;;;;5002759;28;20573;-67
2022/09/01 02:20:49;;;;;;;4.40;2.20;;;11.60;99.90;;;;;;5020125;28;20037;-67
2022/09/01 02:23:18;;;;;;;4.88;2.15;;;11.60;99.90;;;;;;5000425;28;20034;-67
2022/09/01 02:25:45;;;;;;;4.50;2.60;;;11.60;99.90;;;;;;5003523;28;20046;-67
2022/09/01 02:28:15;;;;;;;4.30;2.47;;;11.60;99.90;;;;;;5004910;28;20574;-67
2022/09/01 02:30:48;;;;;;;3.88;2.40;;;11.60;99.90;;;;;;5016423;28;20107;-67
2022/09/01 02:33:17;;;;;;;5.38;2.60;;;11.60;99.90;;;;;;5017955;28;20041;-67
2022/09/01 02:35:48;;;;;;;3.30;2.40;;;11.60;99.90;;;;;;5020234;28;20100;-67
2022/09/01 02:38:16;;;;;;;3.70;2.20;;;11.60;99.90;;;;;;4986295;28;20080;-67
2022/09/01 02:40:45;;;;;;;2.72;2.53;;;11.60;99.90;;;;;;5003121;28;20103;-66
2022/09/01 02:43:15;;;;;;;3.72;2.85;;;11.50;99.90;;;;;;5021734;28;20171;-67
2022/09/01 02:45:43;;;;;;;3.00;2.70;;;11.50;99.90;;;;;;5021201;28;20137;-67
2022/09/01 02:48:09;;;;;;;4.30;2.72;;;11.50;99.90;;;;;;5019571;28;20565;-66
2022/09/01 02:50:40;;;;;;;4.95;2.28;;;11.50;99.90;;;;;;5019315;28;20049;-67
2022/09/01 02:53:08;;;;;;;4.10;2.83;;;11.50;99.90;;;;;;5003763;28;20041;-67
2022/09/01 02:55:41;;;;;;;3.80;2.58;;;11.50;99.90;;;;;;4998288;28;20045;-67
2022/09/01 02:58:15;;;;;;;4.30;2.70;;;11.50;99.90;;;;;;5018292;28;20174;-67
2022/09/01 03:00:51;;;;;;;5.60;2.90;;;11.50;99.90;;;;;;5000783;28;20383;-67
2022/09/01 03:03:18;;;;;;;3.63;2.65;;;11.50;99.90;;;;;;5002714;28;21118;-67
2022/09/01 03:05:44;;;;;;;3.10;2.60;;;11.50;99.90;;;;;;5018838;28;20041;-67
2022/09/01 03:08:14;;;;;;;2.50;2.30;;;11.40;99.90;;;;;;5020943;28;20688;-66
2022/09/01 03:10:43;;;;;;;3.78;2.67;;;11.50;99.90;;;;;;5001671;28;20499;-67
2022/09/01 03:13:18;;;;;;;3.05;2.30;;;11.40;99.90;;;;;;5020609;28;20128;-66
2022/09/01 03:15:45;;;;;;;5.07;2.50;;;11.40;99.90;;;;;;5018689;28;20050;-67
2022/09/01 03:18:12;;;;;;;3.65;2.65;;;11.30;99.90;;;;;;5019268;28;20493;-66
2022/09/01 03:20:42;;;;;;;3.80;2.40;;;11.40;99.90;;;;;;5020250;28;20606;-66
2022/09/01 03:23:13;;;;;;;5.80;2.80;;;11.40;99.90;;;;;;5005895;28;20517;-67
2022/09/01 03:25:41;;;;;;;3.58;2.95;;;11.40;99.90;;;;;;5003630;28;20044;-67
2022/09/01 03:28:08;;;;;;;3.22;2.60;;;11.40;99.90;;;;;;4986595;28;20056;-67
2022/09/01 03:30:39;;;;;;;4.30;2.90;;;11.40;99.90;;;;;;5018917;28;20087;-67
2022/09/01 03:33:06;;;;;;;4.07;2.70;;;11.30;99.90;;;;;;5018828;28;20048;-67
2022/09/01 03:35:32;;;;;;;4.72;2.95;;;11.30;99.90;;;;;;5019886;28;20038;-66
2022/09/01 03:38:00;;;;;;;3.30;2.83;;;11.40;99.90;;;;;;5016933;28;20074;-67
2022/09/01 03:40:32;;;;;;;6.88;2.92;;;11.30;99.90;;;;;;5003377;28;20494;-66
2022/09/01 03:42:58;;;;;;;3.67;2.60;;;11.30;99.90;;;;;;5017440;28;20038;-66
2022/09/01 03:45:24;;;;;;;3.05;2.67;;;11.30;99.90;;;;;;5017953;28;20088;-66
2022/09/01 03:47:53;;;;;;;3.17;2.40;;;11.30;99.90;;;;;;5003438;28;20046;-66
2022/09/01 03:50:22;;;;;;;4.40;2.80;;;11.30;99.90;;;;;;5020584;28;20037;-66
2022/09/01 03:52:53;;;;;;;3.97;2.90;;;11.40;99.90;;;;;;5018916;28;20103;-66
2022/09/01 03:55:22;;;;;;;4.22;2.55;;;11.30;99.90;;;;;;5019487;28;20228;-66
2022/09/01 03:57:52;;;;;;;5.68;2.92;;;11.40;99.90;;;;;;5015570;28;20042;-66
2022/09/01 04:00:19;;;;;;;3.47;2.53;;;11.40;99.90;;;;;;5018921;28;20113;-66
2022/09/01 04:02:49;;;;;;;5.95;2.95;;;11.40;99.90;;;;;;5004250;28;20389;-66
2022/09/01 04:05:17;;;;;;;5.10;2.90;;;11.40;99.90;;;;;;4999425;28;20148;-66
2022/09/01 04:07:47;;;;;;;3.13;2.78;;;11.40;99.90;;;;;;5001540;28;20092;-66
2022/09/01 04:10:14;;;;;;;3.22;2.72;;;11.40;99.90;;;;;;4986656;28;20045;-66
2022/09/01 04:12:39;;;;;;;4.78;3.22;;;11.50;99.90;;;;;;4999561;28;20046;-66
2022/09/01 04:15:07;;;;;;;3.85;2.80;;;11.40;99.90;;;;;;4998348;28;20075;-66
2022/09/01 04:20:19;;;;;;;4.70;3.03;;;11.50;99.90;;;;;;5017792;28;20150;-66
2022/09/01 04:22:50;;;;;;;5.75;2.80;;;11.50;99.90;;;;;;5017630;28;20045;-67
2022/09/01 04:25:21;;;;;;;4.40;2.90;;;11.50;99.90;;;;;;5001861;28;20449;-66
2022/09/01 04:27:49;;;;;;;5.47;3.08;;;10.90;99.90;;;;;;5017530;28;20045;-68
2022/09/01 04:30:15;;;;;;;3.30;2.50;;;11.60;99.90;;;;;;5016959;28;20048;-67
2022/09/01 04:32:42;;;;;;;4.28;2.72;;;11.50;99.90;;;;;;5002900;28;20168;-66
2022/09/01 04:35:15;;;;;;;4.53;2.97;;;11.50;99.90;;;;;;5003800;28;20511;-66
2022/09/01 04:37:42;;;;;;;3.92;3.13;;;11.50;99.90;;;;;;5021258;28;20318;-65
2022/09/01 04:40:08;;;;;;;6.22;3.25;;;11.60;99.90;;;;;;5020588;28;20041;-66
2022/09/01 04:42:34;;;;;;;4.47;3.05;;;11.60;99.90;;;;;;5020027;28;20050;-66
2022/09/01 04:45:01;;;;;;;5.05;3.13;;;11.60;99.90;;;;;;5021538;28;20053;-66
2022/09/01 04:47:30;;;;;;;5.82;3.03;;;11.60;99.90;;;;;;5021412;28;20545;-66
2022/09/01 04:49:59;;;;;;;6.80;3.50;;;11.50;99.90;;;;;;5002303;28;20049;-65
2022/09/01 04:52:26;;;;;;;4.82;3.08;;;11.50;99.90;;;;;;5005584;28;20048;-66
2022/09/01 04:54:53;;;;;;;5.45;3.13;;;11.50;99.90;;;;;;5021228;28;20491;-66
2022/09/01 04:57:20;;;;;;;4.90;3.30;;;11.50;99.90;;;;;;5021452;28;20068;-66
2022/09/01 04:59:46;;;;;;;6.80;3.15;;;11.50;99.90;;;;;;5020018;28;20154;-65
2022/09/01 05:02:12;;;;;;;5.38;3.35;;;11.50;99.90;;;;;;5003110;28;20046;-66
2022/09/01 05:04:43;;;;;;;5.10;3.10;;;11.40;99.90;;;;;;4988777;28;20060;-66
2022/09/01 05:07:10;;;;;;;4.65;2.95;;;11.40;99.90;;;;;;5021024;28;20137;-65
2022/09/01 05:09:36;;;;;;;4.38;3.28;;;11.40;99.90;;;;;;5027254;28;20038;-68
2022/09/01 05:12:14;;;;;;;6.68;2.92;;;11.40;99.90;;;;;;5022697;28;20045;-66
2022/09/01 05:14:42;;;;;;;3.85;3.00;;;11.30;99.90;;;;;;5017507;28;20033;-66
2022/09/01 05:17:09;;;;;;;4.55;3.13;;;11.30;99.90;;;;;;5021133;28;20506;-66
2022/09/01 05:19:46;;;;;;;4.53;2.58;;;11.30;99.90;;;;;;5001017;28;20041;-66
2022/09/01 05:22:13;;;;;;;3.97;3.45;;;11.30;99.90;;;;;;5014997;28;20124;-66
2022/09/01 05:24:39;;;;;;;4.50;3.15;;;11.30;99.90;;;;;;5064784;23;20062;-86
2022/09/01 05:27:06;;;;;;;6.90;3.20;;;11.40;99.90;;;;;;5002638;28;20050;-87
2022/09/01 05:29:33;;;;;;;3.95;2.97;;;11.40;99.90;;;;;;5002762;28;20045;-87
2022/09/01 05:32:07;;;;;;;3.72;2.78;;;11.60;99.90;;;;;;5020730;28;20045;-84
2022/09/01 05:34:36;;;;;;;4.60;3.17;;;11.40;99.90;;;;;;4980751;28;20057;-84
2022/09/01 05:37:02;;;;;;;3.38;2.90;;;11.40;99.90;;;;;;5009432;28;20029;-83
2022/09/01 05:39:28;;;;;;;3.85;2.90;;;11.40;99.90;;;;;;4990720;28;20050;-91
2022/09/01 05:41:54;;;;;;;3.30;2.80;;;11.40;99.90;;;;;;4998547;28;20071;-87
2022/09/01 05:44:24;;;;;;;4.30;3.20;;;11.50;99.90;;;;;;4992426;28;20046;-84
2022/09/01 05:46:50;;;;;;;3.78;2.78;;;11.50;99.90;;;;;;5007963;28;20060;-84
2022/09/01 05:49:17;;;;;;;5.05;3.15;;;11.50;99.90;;;;;;4993002;28;20046;-84
2022/09/01 05:51:48;;;;;;;6.22;3.30;;;11.50;99.90;;;;;;5009195;28;20077;-85
2022/09/01 05:54:21;;;;;;;4.35;3.20;;;11.50;99.90;;;;;;5008179;28;20454;-84
2022/09/01 05:56:48;;;;;;;4.63;3.63;;;11.60;99.90;;;;;;5006158;28;20759;-82
2022/09/01 05:59:14;;;;;;;3.45;2.97;;;11.60;99.90;;;;;;5005384;28;20133;-80
2022/09/01 06:01:40;;;;;;;4.60;3.45;;;11.70;99.90;;;;;;4990071;28;20033;-82
2022/09/01 06:04:08;;;;;;;3.95;3.20;;;11.70;99.90;;;;;;5005031;28;20045;-82
2022/09/01 06:06:45;;;;;;;4.60;3.17;;;11.80;99.90;;;;;;4989544;28;20049;-83
2022/09/01 06:09:12;;;;;;;4.00;3.10;;;11.80;99.90;;;;;;5007114;28;20064;-83
2022/09/01 06:11:39;;;;;;;5.63;3.40;;;11.90;99.90;;;;;;4994227;28;21580;-82
2022/09/01 06:14:09;;;;;;;4.25;2.97;;;11.90;99.90;;;;;;5005717;28;20049;-81
2022/09/01 06:16:36;;;;;;;6.15;3.45;;;12.00;99.90;;;;;;5009703;28;20076;-92
2022/09/01 06:19:03;;;;;;;4.60;3.42;;;12.00;99.90;;;;;;5007511;28;20057;-81
2022/09/01 06:21:30;;;;;;;5.25;3.65;;;12.10;99.90;;;;;;5006339;28;20108;-80
2022/09/01 06:23:57;;;;;;;5.00;3.33;;;12.10;99.90;;;;;;5008777;28;20069;-83
2022/09/01 06:26:32;;;;;;;6.05;3.55;;;12.20;99.90;;;;;;5009576;28;20044;-83
2022/09/01 06:29:02;;;;;;;5.15;3.25;;;12.30;99.90;;;;;;5021743;28;20125;-84
2022/09/01 06:31:32;;;;;;;4.35;3.20;;;12.30;99.90;;;;;;5008152;28;20111;-83
2022/09/01 06:34:01;;;;;;;6.35;3.90;;;12.40;99.90;;;;;;5006286;28;20403;-82
2022/09/01 06:36:28;;;;;;;4.60;3.72;;;12.50;99.90;;;;;;4993133;28;20045;-84
2022/09/01 06:38:54;;;;;;;4.97;3.75;;;12.50;99.90;;;;;;5000888;28;20042;-89
2022/09/01 06:41:22;;;;;;;7.05;3.83;;;12.60;99.90;;;;;;4995858;28;20126;-86
2022/09/01 06:43:51;;;;;;;7.03;3.40;;;12.80;99.90;;;;;;4992076;28;20068;-86
2022/09/01 06:46:18;;;;;;;7.97;3.67;;;12.80;99.90;;;;;;5016203;28;20041;-86
2022/09/01 06:48:45;;;;;;;6.05;3.72;;;12.90;99.90;;;;;;5016975;28;20037;-84
2022/09/01 06:51:20;;;;;;;6.50;3.58;;;13.00;99.90;;;;;;4990122;28;20037;-86
2022/09/01 06:53:55;;;;;;;4.82;3.30;;;13.20;99.90;;;;;;5001555;28;20105;-86
2022/09/01 06:56:23;;;;;;;4.45;2.95;;;13.30;99.90;;;;;;5001097;28;20053;-85
2022/09/01 06:58:51;;;;;;;13.27;3.00;;;13.40;99.90;;;;;;4994912;28;20041;-85
2022/09/01 07:01:19;;;;;;;5.20;3.50;;;13.50;99.90;;;;;;4997403;28;20052;-85
2022/09/01 07:03:47;;;;;;;4.40;3.40;;;13.60;99.90;;;;;;5009098;28;20062;-85
2022/09/01 07:06:14;;;;;;;5.53;3.30;;;13.80;99.90;;;;;;4995327;28;20045;-86
2022/09/01 07:08:48;;;;;;;5.63;3.63;;;13.90;99.90;;;;;;4991449;28;20075;-86
2022/09/01 07:11:23;;;;;;;6.25;3.10;;;14.00;99.90;;;;;;4994677;28;20045;-86
2022/09/01 07:13:53;;;;;;;5.90;3.00;;;14.20;99.90;;;;;;5009621;28;20052;-83
2022/09/01 07:16:21;;;;;;;5.70;3.08;;;14.40;99.90;;;;;;4996050;28;20037;-84
2022/09/01 07:18:55;;;;;;;4.53;3.08;;;14.60;99.90;;;;;;5008965;28;20071;-89
2022/09/01 07:21:21;;;;;;;4.88;2.80;;;14.80;99.90;;;;;;5010044;28;20044;-90
2022/09/01 07:23:47;;;;;;;4.07;2.60;;;14.90;99.90;;;;;;5002140;28;20185;-84
2022/09/01 07:26:18;;;;;;;5.97;2.90;;;15.10;99.90;;;;;;5006653;28;20490;-84
2022/09/01 07:28:49;;;;;;;3.85;2.70;;;15.30;99.90;;;;;;5020976;28;20097;-83
2022/09/01 07:31:42;;;;;;;3.33;2.38;;;15.50;99.90;;;;;;5008283;28;20037;-85
2022/09/01 07:34:12;;;;;;;5.22;2.63;;;15.80;99.90;;;;;;5002948;28;20096;-85
2022/09/01 07:36:42;;;;;;;7.30;2.90;;;16.00;99.90;;;;;;5009072;28;20041;-84
2022/09/01 07:39:09;;;;;;;5.93;2.80;;;16.20;99.90;;;;;;5007419;28;20029;-85
2022/09/01 07:41:38;;;;;;;4.80;2.90;;;16.50;99.90;;;;;;4995795;28;20068;-84
2022/09/01 07:44:07;;;;;;;7.35;2.30;;;16.70;99.90;;;;;;5006465;28;20133;-86
2022/09/01 07:46:32;;;;;;;4.85;2.50;;;16.80;99.90;;;;;;4980750;28;20553;-84
2022/09/01 07:49:00;;;;;;;2.38;2.17;;;17.00;99.90;;;;;;5010659;28;20045;-86
2022/09/01 07:51:27;;;;;;;2.83;2.03;;;17.20;99.90;;;;;;4999504;28;20053;-83
2022/09/01 07:53:54;;;;;;;5.43;2.25;;;17.40;99.90;;;;;;5009408;28;20121;-80
2022/09/01 07:56:22;;;;;;;8.50;2.40;;;17.70;99.90;;;;;;4992758;28;20042;-84
2022/09/01 07:58:49;;;;;;;4.25;2.13;;;17.80;99.90;;;;;;4996426;28;20553;-80
2022/09/01 08:01:22;;;;;;;2.88;2.05;;;17.90;99.90;;;;;;5009187;28;20044;-80
2022/09/01 08:03:57;;;;;;;4.22;2.50;;;18.10;99.90;;;;;;5015039;28;20060;-82
2022/09/01 08:06:25;;;;;;;4.13;2.08;;;18.30;99.90;;;;;;5011878;28;20034;-86
2022/09/01 08:08:52;;;;;;;3.42;2.17;;;18.50;99.90;;;;;;4991614;28;20045;-88
2022/09/01 08:11:25;;;;;;;4.90;2.13;;;18.50;99.90;;;;;;4983871;28;20034;-86
2022/09/01 08:13:52;;;;;;;;;;;18.70;99.90;;;;;;5013350;28;20037;-90
2022/09/01 08:16:18;;;;;;;4.88;2.13;;;18.80;99.90;;;;;;5016520;28;20298;-88
2022/09/01 08:18:46;;;;;;;5.30;1.75;;;19.00;99.90;;;;;;4983834;28;20038;-91
2022/09/01 08:21:12;;;;;;;2.95;1.75;;;19.20;99.90;;;;;;5001518;28;20037;-91
2022/09/01 08:23:39;;;;;;;2.45;1.70;;;19.30;99.90;;;;;;4998680;28;20049;-84
2022/09/01 08:26:11;;;;;;;4.25;1.73;;;19.50;99.90;;;;;;5015909;28;20686;-86
2022/09/01 08:28:38;;;;;;;4.55;1.95;;;19.70;99.90;;;;;;4999125;28;20029;-85
2022/09/01 08:31:12;;;;;;;2.60;1.60;;;19.90;99.90;;;;;;5013766;28;20049;-85
2022/09/01 08:33:39;;;;;;;3.35;1.58;;;20.10;99.90;;;;;;5008009;28;20041;-85
2022/09/01 08:36:10;;;;;;;3.30;1.58;;;20.30;99.90;;;;;;5015491;28;20041;-86
2022/09/01 08:38:36;;;;;;;2.88;1.50;;;20.40;99.90;;;;;;5023205;28;20060;-87
2022/09/01 08:41:11;;;;;;;3.97;2.08;;;20.50;99.90;;;;;;4972841;28;20064;-90
2022/09/01 08:43:49;;;;;;;5.60;1.60;;;20.60;99.90;;;;;;5015759;28;20038;-91
2022/09/01 08:46:26;;;;;;;4.47;1.80;;;20.80;99.90;;;;;;5016437;28;20041;-89
2022/09/01 08:48:56;;;;;;;4.55;1.52;;;20.80;99.90;;;;;;5015213;28;20132;-90
2022/09/01 08:51:47;;;;;;;3.83;1.50;;;20.90;99.90;;;;;;5013493;28;20045;-86
2022/09/01 08:54:33;;;;;;;3.15;1.45;;;21.00;99.90;;;;;;5003320;28;20049;-85
2022/09/01 08:57:09;;;;;;;2.85;1.45;;;21.10;99.90;;;;;;5015650;28;20036;-86
2022/09/01 08:59:35;;;;;;;1.85;1.40;;;21.30;99.50;;;;;;5030171;28;20041;-88
2022/09/01 09:02:37;;;;;;;2.10;1.52;;;21.30;99.90;;;;;;5016712;28;20491;-88
2022/09/01 09:05:27;;;;;;;2.97;1.40;;;21.40;99.30;;;;;;5029485;28;20041;-87
2022/09/01 09:08:13;;;;;;;1.85;1.20;;;21.50;99.10;;;;;;5019196;28;20194;-88
2022/09/01 09:10:59;;;;;;;1.58;1.17;;;21.60;99.50;;;;;;5005215;28;20711;-82
2022/09/01 09:13:31;;;;;;;2.00;1.08;;;21.70;98.40;;;;;;5000309;28;20497;-82
2022/09/01 09:16:06;;;;;;;2.58;1.40;;;21.90;98.20;;;;;;5029197;28;20302;-82
2022/09/01 09:18:39;;;;;;;2.15;0.90;;;21.90;97.90;;;;;;5007140;28;20064;-82
2022/09/01 09:21:14;;;;;;;1.58;1.02;;;21.90;97.90;;;;;;5001791;28;20061;-82
2022/09/01 09:23:45;;;;;;;2.78;1.30;;;22.10;97.30;;;;;;5008769;28;20132;-82
2022/09/01 09:26:12;;;;;;;1.80;1.00;;;22.20;96.90;;;;;;5034651;28;20050;-82
2022/09/01 09:28:38;;;;;;;1.52;1.30;;;22.30;96.80;;;;;;4984757;28;20044;-83
2022/09/01 09:31:42;;;;;;;5.80;1.63;;;22.40;96.00;;;;;;5006987;28;20033;-83
2022/09/01 09:34:26;;;;;;;2.92;1.05;;;22.50;95.00;;;;;;5007772;28;20092;-83
2022/09/01 09:36:52;;;;;;;2.75;1.10;;;22.70;94.80;;;;;;5007753;28;20071;-83
2022/09/01 09:39:18;;;;;;;3.08;0.93;;;22.80;95.20;;;;;;5009331;28;20037;-84
2022/09/01 09:42:08;;;;;;;1.38;1.00;;;22.90;94.60;;;;;;5011837;28;20058;-83
2022/09/01 09:44:42;;;;;;;1.48;1.08;;;23.10;93.70;;;;;;5007347;28;20037;-83
2022/09/01 09:47:09;;;;;;;2.80;0.98;;;23.20;93.40;;;;;;5008920;28;20037;-83
2022/09/01 09:49:36;;;;;;;2.47;1.10;;;23.20;93.80;;;;;;5011701;28;20417;-83
2022/09/01 09:52:01;;;;;;;4.70;1.33;;;23.20;93.50;;;;;;5012530;28;20383;-83
2022/09/01 09:54:29;;;;;;;2.25;1.20;;;23.30;93.30;;;;;;5017529;28;20047;-86
2022/09/01 09:57:07;;;;;;;1.33;1.00;;;23.40;92.90;;;;;;5012995;28;20049;-83
2022/09/01 09:59:45;;;;;;;2.55;1.15;;;23.50;92.70;;;;;;5011022;28;20079;-83
2022/09/01 10:02:40;;;;;;;2.83;1.08;;;23.70;92.40;;;;;;4999561;28;20079;-82
2022/09/01 10:05:40;;;;;;;1.38;0.80;;;23.80;91.50;;;;;;5008436;28;20041;-83
2022/09/01 10:08:09;;;;;;;2.08;0.90;;;23.80;90.70;;;;;;4994365;28;20064;-86
2022/09/01 10:10:49;;;;;;;2.33;1.00;;;23.90;90.50;;;;;;4996844;28;20073;-86
2022/09/01 10:13:17;;;;;;;1.77;0.93;;;23.90;90.10;;;;;;4996968;28;20075;-85
2022/09/01 10:15:48;;;;;;;4.72;1.40;;;23.90;90.60;;;;;;5008792;28;20037;-86
2022/09/01 10:18:17;;;;;;;2.63;0.75;;;23.70;88.60;;;;;;5014125;28;20034;-89
2022/09/01 10:21:07;;;;;;;51.53;4.50;;;23.40;89.80;;;;;;5031860;28;21518;-83
2022/09/01 10:23:34;;;;;;;3.30;1.13;;;23.40;89.90;;;;;;5009789;28;20050;-82
2022/09/01 10:26:15;;;;;;;3.40;0.90;;;23.20;90.20;;;;;;5008887;28;20045;-83
2022/09/01 10:29:00;;;;;;;3.33;1.00;;;23.10;89.30;;;;;;4995775;28;20056;-85
2022/09/01 10:31:26;;;;;;;9.63;2.20;;;22.90;88.20;;;;;;4999392;28;20232;-86
2022/09/01 10:33:52;;;;;;;11.98;1.70;;;22.70;89.70;;;;;;4999025;28;20427;-85
2022/09/01 10:36:19;;;;;;;3.78;1.00;;;22.90;90.10;;;;;;5013136;28;20092;-86
2022/09/01 10:38:47;;;;;;;2.88;1.00;;;23.10;90.20;;;;;;4990814;28;20049;-84
2022/09/01 10:41:50;;;;;;;2.40;0.93;;;23.20;89.60;;;;;;4995613;28;20037;-85
2022/09/01 10:44:19;;;;;;;;;;;23.50;88.70;;;;;;5011283;28;20157;-84
2022/09/01 10:46:45;;;;;;;6.07;1.35;;;23.90;87.50;;;;;;5008964;28;19928;-84
2022/09/01 10:49:25;;;;;;;3.33;1.15;;;24.00;88.30;;;;;;4985649;28;20722;-85
2022/09/01 10:51:53;;;;;;;2.03;0.95;;;24.20;87.10;;;;;;5004354;28;20563;-84
2022/09/01 10:54:40;;;;;;;3.20;1.00;;;24.40;86.70;;;;;;4985668;28;20167;-85
2022/09/01 10:57:27;;;;;;;1.27;1.00;;;24.60;86.30;;;;;;5005474;28;20052;-84
2022/09/01 10:59:56;;;;;;;2.50;0.80;;;24.50;83.90;;;;;;4996499;28;20037;-85
2022/09/01 11:02:22;;;;;;;3.35;0.98;;;24.30;85.20;;;;;;4993870;28;20106;-82
2022/09/01 11:04:48;;;;;;;1.13;0.75;;;24.30;85.60;;;;;;4999971;28;20163;-83
2022/09/01 11:07:22;;;;;;;0.68;0.68;;;24.20;84.20;;;;;;5002640;28;20493;-83
2022/09/01 11:10:13;;;;;;;4.78;1.42;;;24.20;83.50;;;;;;5004490;28;20577;-83
2022/09/01 11:12:48;;;;;;;2.55;1.20;;;24.40;83.20;;;;;;5006943;28;20057;-85
2022/09/01 11:15:14;;;;;;;3.78;1.00;;;24.60;84.00;;;;;;4991137;28;20082;-85
2022/09/01 11:17:51;;;;;;;1.90;0.82;;;24.60;83.60;;;;;;4999305;28;20042;-87
2022/09/01 11:20:25;;;;;;;4.30;1.63;;;24.60;82.50;;;;;;4997639;28;20474;-87
2022/09/01 11:23:30;;;;;;;3.72;1.00;;;24.60;81.90;;;;;;5002419;28;20042;-88
2022/09/01 11:26:04;;;;;;;2.25;0.82;;;24.70;81.00;;;;;;4894260;29;20051;-88
2022/09/01 11:28:33;;;;;;;1.77;1.10;;;24.90;82.40;;;;;;4904910;29;20044;-88
2022/09/01 11:31:05;;;;;;;2.38;1.00;;;24.90;82.00;;;;;;4976658;28;20621;-89
2022/09/01 11:33:49;;;;;;;9.32;1.50;;;25.00;82.40;;;;;;5005855;28;20045;-88
2022/09/01 11:36:17;;;;;;;12.40;1.73;;;25.20;82.10;;;;;;5004060;28;20063;-91
2022/09/01 11:38:50;;;;;;;2.97;1.05;;;25.50;81.70;;;;;;5001350;28;20050;-88
2022/09/01 11:41:31;;;;;;;2.10;0.88;;;25.50;81.00;;;;;;5017143;28;20385;-87
2022/09/01 11:43:58;;;;;;;1.02;0.95;;;25.40;79.10;;;;;;5003745;28;20038;-86
2022/09/01 11:46:34;;;;;;;2.10;0.85;;;25.50;79.60;;;;;;4991822;28;20034;-90
2022/09/01 11:49:17;;;;;;;5.25;1.23;;;25.50;75.90;;;;;;4992286;28;20131;-87
2022/09/01 11:51:47;;;;;;;2.55;1.13;;;25.60;79.30;;;;;;5008450;28;20120;-86
2022/09/01 11:54:14;;;;;;;1.55;0.80;;;25.50;77.70;;;;;;5009314;28;20486;-87
2022/09/01 11:56:39;;;;;;;1.83;0.80;;;25.10;77.20;;;;;;4978713;28;20049;-87
2022/09/01 11:59:05;;;;;;;2.00;1.23;;;24.70;77.80;;;;;;5016389;28;20033;-86
2022/09/01 12:01:35;;;;;;;1.90;0.80;;;24.60;78.10;;;;;;5009281;28;20037;-87
2022/09/01 12:04:21;;;;;;;4.90;0.93;;;24.60;78.30;;;;;;5012354;28;20029;-87
2022/09/01 12:06:58;;;;;;;2.78;1.02;;;24.90;76.80;;;;;;5029595;28;20404;-87
2022/09/01 12:09:35;;;;;;;3.20;1.23;;;25.00;77.20;;;;;;4993493;28;20407;-86
2022/09/01 12:12:04;;;;;;;1.67;0.90;;;25.30;76.00;;;;;;5013896;28;20395;-88
2022/09/01 12:14:30;;;;;;;2.75;0.90;;;25.30;77.40;;;;;;5002896;28;20041;-88
2022/09/01 12:17:05;;;;;;;5.28;1.02;;;25.50;77.10;;;;;;5001795;28;20148;-88
2022/09/01 12:19:34;;;;;;;2.55;0.77;;;25.80;75.20;;;;;;5001688;28;20038;-87
2022/09/01 12:22:02;;;;;;;3.40;0.80;;;26.00;75.80;;;;;;5003477;28;20041;-85
2022/09/01 12:24:33;;;;;;;4.28;1.10;;;26.20;75.10;;;;;;5001602;28;20084;-84
2022/09/01 12:27:00;;;;;;;2.10;0.60;;;26.10;73.30;;;;;;5004448;28;20060;-85
2022/09/01 12:29:26;;;;;;;1.38;0.95;;;26.00;71.50;;;;;;4980816;28;20108;-84
2022/09/01 12:31:53;;;;;;;1.80;0.80;;;26.00;72.40;;;;;;4997303;28;20040;-84
2022/09/01 12:34:33;;;;;;;2.42;0.93;;;26.00;73.00;;;;;;5019269;28;20125;-85
2022/09/01 12:37:05;;;;;;;2.03;0.90;;;26.10;73.60;;;;;;5017909;28;20033;-85
2022/09/01 12:39:37;;;;;;;2.38;1.10;;;26.30;73.20;;;;;;5011033;28;20502;-85
2022/09/01 12:42:11;;;;;;;2.78;1.00;;;26.40;71.80;;;;;;4998443;28;20470;-84
2022/09/01 12:44:36;;;;;;;0.63;0.60;;;26.40;69.60;;;;;;5000372;28;20040;-84
2022/09/01 12:47:09;;;;;;;1.58;0.80;;;26.30;71.10;;;;;;5007450;28;20041;-85
2022/09/01 12:49:40;;;;;;;1.55;0.93;;;26.20;71.00;;;;;;5009025;28;20034;-85
2022/09/01 12:52:18;;;;;;;1.17;0.70;;;26.20;70.30;;;;;;4998185;28;20400;-85
2022/09/01 12:54:45;;;;;;;1.75;1.05;;;26.20;69.90;;;;;;4996624;28;20462;-85
2022/09/01 12:57:26;;;;;;;3.53;1.25;;;26.30;71.20;;;;;;5008047;28;20519;-85
2022/09/01 13:00:27;;;;;;;5.00;1.50;;;26.40;69.60;;;;;;4993443;28;20064;-85
2022/09/01 13:02:55;;;;;;;8.70;1.67;;;26.40;68.70;;;;;;4974052;28;20041;-85
2022/09/01 13:05:33;;;;;;;2.40;1.38;;;26.40;70.00;;;;;;5006775;28;20041;-85
2022/09/01 13:08:07;;;;;;;4.72;1.00;;;26.30;69.30;;;;;;5011334;28;20446;-84
2022/09/01 13:10:48;;;;;;;3.70;1.00;;;26.20;69.80;;;;;;5012152;28;20053;-84
2022/09/01 13:13:16;;;;;;;3.08;1.20;;;26.10;69.50;;;;;;5010158;28;20041;-84
2022/09/01 13:15:49;;;;;;;4.47;0.95;;;26.00;70.60;;;;;;4994574;28;20044;-84
2022/09/01 13:18:20;;;;;;;1.00;0.90;;;26.10;69.20;;;;;;5005293;28;20049;-84